Time;durP1;ratioP1;P1;durP2;ratioP2;P2;SDS_P1;SDS_P2;PMS_P1;PMS_P2;Temp;Humidity;BMP_temperature;BMP_pressure;BME280_temperature;BME280_humidity;BME280_pressure;Samples;Min_cycle;Max_cycle;Signal;HPM_P1;HPM_P2
2022/05/11 00:00:24;;;;;;;15.75;8.52;;;;;;;17.17;100.00;101386.41;4918064;29;20059;-75
2022/05/11 00:03:10;;;;;;;14.55;8.95;;;;;;;17.25;100.00;101392.31;4916555;29;20471;-76
2022/05/11 00:05:56;;;;;;;15.10;8.88;;;;;;;17.31;100.00;101384.16;4918406;29;20047;-75
2022/05/11 00:08:43;;;;;;;15.18;8.90;;;;;;;17.58;100.00;101383.22;4918106;29;20034;-76
2022/05/11 00:11:29;;;;;;;12.93;9.00;;;;;;;17.15;100.00;101397.06;4918411;29;20028;-74
2022/05/11 00:14:15;;;;;;;14.48;8.60;;;;;;;17.43;100.00;101386.41;4918235;29;20088;-74
2022/05/11 00:17:01;;;;;;;18.83;8.75;;;;;;;17.13;100.00;101384.78;4918199;29;20017;-73
2022/05/11 00:19:46;;;;;;;13.38;8.20;;;;;;;17.03;100.00;101381.59;4930987;29;20135;-74
2022/05/11 00:22:36;;;;;;;10.40;6.90;;;;;;;17.18;100.00;101383.72;4917986;29;20107;-74
2022/05/11 00:25:25;;;;;;;11.57;7.25;;;;;;;16.93;100.00;101384.59;4918784;29;20043;-74
2022/05/11 00:28:12;;;;;;;10.32;6.95;;;;;;;16.84;100.00;101375.16;4917445;29;20032;-74
2022/05/11 00:30:58;;;;;;;11.75;7.22;;;;;;;16.49;100.00;101374.56;4918150;29;20099;-74
2022/05/11 00:33:44;;;;;;;13.52;7.50;;;;;;;16.86;100.00;101377.75;4918046;29;20111;-74
2022/05/11 00:36:29;;;;;;;9.55;7.15;;;;;;;17.02;100.00;101373.69;4918074;29;20035;-75
2022/05/11 00:39:15;;;;;;;14.40;7.63;;;;;;;17.07;100.00;101366.44;4917824;29;20020;-74
2022/05/11 00:42:03;;;;;;;14.40;8.25;;;;;;;16.74;100.00;101365.78;4918496;29;20065;-74
2022/05/11 00:44:48;;;;;;;15.27;8.35;;;;;;;16.62;100.00;101371.47;4916577;29;20115;-73
2022/05/11 00:47:39;;;;;;;12.38;8.55;;;;;;;16.93;100.00;101364.28;4917554;29;20039;-74
2022/05/11 00:50:30;;;;;;;10.15;7.85;;;;;;;17.00;100.00;101368.44;4917985;29;20463;-74
2022/05/11 00:53:17;;;;;;;15.65;8.93;;;;;;;17.17;100.00;101359.94;4917847;29;20055;-74
2022/05/11 00:56:05;;;;;;;15.68;9.10;;;;;;;17.06;100.00;101367.38;4921492;29;20102;-73
2022/05/11 00:59:00;;;;;;;14.57;9.07;;;;;;;16.92;100.00;101367.81;4920551;29;20028;-75
2022/05/11 01:01:47;;;;;;;10.27;7.95;;;;;;;16.81;100.00;101363.81;4921558;29;20036;-74
2022/05/11 01:04:38;;;;;;;13.38;8.50;;;;;;;16.83;100.00;101367.25;4920455;29;20379;-74
2022/05/11 01:07:27;;;;;;;11.13;7.53;;;;;;;16.72;100.00;101362.31;4921197;29;20064;-74
2022/05/11 01:10:13;;;;;;;15.25;8.63;;;;;;;16.83;100.00;101373.44;4920442;29;20043;-74
2022/05/11 01:13:01;;;;;;;10.90;7.70;;;;;;;16.88;100.00;101368.00;4920935;29;20024;-74
2022/05/11 01:15:50;;;;;;;11.98;7.65;;;;;;;16.62;100.00;101366.19;4919760;29;20028;-74
2022/05/11 01:18:39;;;;;;;10.80;8.05;;;;;;;16.44;100.00;101361.47;4921203;29;20032;-74
2022/05/11 01:21:54;;;;;;;13.13;7.82;;;;;;;16.47;100.00;101360.53;4921098;29;20036;-74
2022/05/11 01:24:43;;;;;;;11.07;7.95;;;;;;;16.42;100.00;101368.59;4932167;29;20031;-75
2022/05/11 01:27:39;;;;;;;11.48;8.32;;;;;;;16.81;100.00;101374.41;4920030;29;20032;-74
2022/05/11 01:30:24;;;;;;;12.38;8.85;;;;;;;16.72;100.00;101366.78;4920514;29;20123;-74
2022/05/11 01:33:17;;;;;;;15.07;8.45;;;;;;;16.51;100.00;101375.38;4920470;29;20028;-74
2022/05/11 01:36:25;;;;;;;13.52;8.30;;;;;;;16.39;100.00;101375.75;4920231;29;20032;-74
2022/05/11 01:39:11;;;;;;;12.80;8.27;;;;;;;16.32;100.00;101380.31;4920648;29;20046;-75
2022/05/11 01:41:56;;;;;;;13.73;9.20;;;;;;;16.48;100.00;101365.75;4920280;29;20476;-74
2022/05/11 01:44:42;;;;;;;13.80;8.50;;;;;;;16.41;100.00;101385.38;4919716;29;20058;-74
2022/05/11 01:47:28;;;;;;;12.27;8.68;;;;;;;16.43;100.00;101380.06;4919960;29;20115;-74
2022/05/11 01:50:14;;;;;;;13.85;8.88;;;;;;;16.39;100.00;101384.50;4920327;29;20036;-73
2022/05/11 01:52:59;;;;;;;10.82;8.38;;;;;;;16.46;100.00;101391.38;4918283;29;20092;-74
2022/05/11 01:55:45;;;;;;;11.98;8.77;;;;;;;16.54;100.00;101385.84;4920791;29;20063;-74
2022/05/11 01:58:31;;;;;;;11.40;8.27;;;;;;;16.40;100.00;101388.88;4920190;29;20028;-74
2022/05/11 02:01:23;;;;;;;13.52;8.93;;;;;;;16.36;100.00;101384.59;4920305;29;20429;-74
2022/05/11 02:10:22;;;;;;;12.43;9.52;;;;;;;16.24;100.00;101389.41;4919867;29;20452;-74
2022/05/11 02:13:08;;;;;;;13.75;9.68;;;;;;;16.08;100.00;101388.13;4919364;29;20100;-73
2022/05/11 02:15:54;;;;;;;14.00;9.80;;;;;;;15.98;100.00;101386.66;4918333;29;20047;-74
2022/05/11 02:18:41;;;;;;;12.85;9.45;;;;;;;15.86;100.00;101389.63;4919970;29;20024;-74
2022/05/11 02:21:26;;;;;;;13.30;9.38;;;;;;;16.22;100.00;101383.28;4917776;29;20420;-74
2022/05/11 02:24:12;;;;;;;12.40;9.45;;;;;;;16.00;100.00;101385.72;4919854;29;20119;-74
2022/05/11 02:27:03;;;;;;;16.90;10.07;;;;;;;16.07;100.00;101387.25;4919886;29;20372;-73
2022/05/11 02:29:49;;;;;;;12.18;9.63;;;;;;;15.91;100.00;101390.41;4918683;29;20512;-74
2022/05/11 02:32:35;;;;;;;17.33;10.15;;;;;;;15.92;100.00;101393.00;4918768;29;20045;-73
2022/05/11 02:35:23;;;;;;;13.45;9.93;;;;;;;15.69;100.00;101392.78;4919010;29;20028;-72
2022/05/11 02:38:18;;;;;;;12.77;9.57;;;;;;;15.81;100.00;101388.91;4919441;29;20024;-72
2022/05/11 02:41:05;;;;;;;12.18;9.30;;;;;;;15.78;100.00;101392.50;4918800;29;20106;-73
2022/05/11 02:43:51;;;;;;;16.90;9.38;;;;;;;15.61;100.00;101388.59;4932253;29;20107;-72
2022/05/11 02:46:37;;;;;;;16.10;11.02;;;;;;;15.80;100.00;101389.84;4919058;29;20073;-73
2022/05/11 02:49:23;;;;;;;13.25;9.55;;;;;;;15.60;100.00;101398.31;4919202;29;20028;-73
2022/05/11 02:52:09;;;;;;;18.60;11.05;;;;;;;15.33;100.00;101406.06;4917119;29;20032;-73
2022/05/11 02:54:54;;;;;;;17.23;11.15;;;;;;;15.36;100.00;101398.97;4918906;29;20047;-73
2022/05/11 02:57:40;;;;;;;18.35;11.02;;;;;;;15.64;100.00;101405.25;4918540;29;20043;-73
2022/05/11 03:00:26;;;;;;;13.80;9.60;;;;;;;15.78;100.00;101397.78;4919391;29;20024;-73
2022/05/11 03:03:14;;;;;;;18.05;10.38;;;;;;;16.03;100.00;101405.91;4917952;29;20095;-73
2022/05/11 03:06:04;;;;;;;15.65;9.43;;;;;;;15.92;100.00;101402.69;4919230;29;20460;-73
2022/05/11 03:08:49;;;;;;;14.10;9.45;;;;;;;15.92;100.00;101405.34;4918740;29;20031;-74
2022/05/11 03:11:36;;;;;;;17.45;10.20;;;;;;;15.88;100.00;101414.25;4918536;29;20058;-73
2022/05/11 03:14:22;;;;;;;15.02;9.13;;;;;;;15.78;100.00;101412.78;4918247;29;20083;-72
2022/05/11 03:17:08;;;;;;;14.75;9.20;;;;;;;15.12;100.00;101415.41;4917329;29;20035;-73
2022/05/11 03:19:55;;;;;;;15.43;9.70;;;;;;;15.64;100.00;101407.00;4931369;29;20042;-73
2022/05/11 03:22:41;;;;;;;11.73;9.40;;;;;;;15.56;100.00;101423.09;4918440;29;20036;-73
2022/05/11 03:25:27;;;;;;;14.65;8.48;;;;;;;15.24;100.00;101428.28;4931683;29;20032;-73
2022/05/11 03:28:12;;;;;;;14.77;8.85;;;;;;;15.50;100.00;101423.22;4918608;29;20491;-73
2022/05/11 03:30:58;;;;;;;13.32;9.20;;;;;;;15.58;100.00;101417.72;4918779;29;20051;-72
2022/05/11 03:36:49;;;;;;;10.93;8.55;;;;;;;14.97;100.00;101431.59;4918773;29;20028;-73
2022/05/11 03:39:35;;;;;;;12.80;8.70;;;;;;;15.04;100.00;101427.91;4918608;29;20063;-76
2022/05/11 03:42:28;;;;;;;12.80;8.30;;;;;;;14.76;100.00;101427.69;4918829;29;20032;-73
2022/05/11 03:45:18;;;;;;;11.63;8.07;;;;;;;14.58;100.00;101429.88;4918289;29;20036;-72
2022/05/11 03:48:05;;;;;;;13.85;8.98;;;;;;;14.88;100.00;101436.22;4918279;29;20119;-73
2022/05/11 03:50:51;;;;;;;14.50;8.95;;;;;;;14.88;100.00;101442.38;4917835;29;20042;-73
2022/05/11 03:53:42;;;;;;;11.60;8.88;;;;;;;15.06;100.00;101441.09;4917916;29;20039;-74
2022/05/11 03:56:28;;;;;;;13.90;8.38;;;;;;;14.96;100.00;101442.19;4917667;29;20183;-72
2022/05/11 03:59:17;;;;;;;14.23;8.65;;;;;;;14.91;100.00;101446.72;4917104;29;20504;-73
2022/05/11 04:02:03;;;;;;;15.68;8.20;;;;;;;14.82;100.00;101453.94;4918549;29;20071;-73
2022/05/11 04:04:49;;;;;;;11.38;8.27;;;;;;;14.24;100.00;101448.19;4918182;29;20112;-73
2022/05/11 04:07:35;;;;;;;14.75;8.02;;;;;;;14.64;100.00;101450.84;4918298;29;20028;-73
2022/05/11 04:10:20;;;;;;;10.73;7.97;;;;;;;15.05;100.00;101456.03;4918526;29;20393;-72
2022/05/11 04:13:06;;;;;;;11.48;7.70;;;;;;;14.57;100.00;101452.75;4918002;29;20471;-73
2022/05/11 04:15:53;;;;;;;10.65;7.40;;;;;;;14.48;100.00;101462.66;4918215;29;20040;-73
2022/05/11 04:18:38;;;;;;;11.90;7.80;;;;;;;14.70;100.00;101462.13;4917161;29;20036;-73
2022/05/11 04:21:24;;;;;;;9.13;7.28;;;;;;;14.68;100.00;101463.91;4918228;29;20032;-73
2022/05/11 04:24:10;;;;;;;13.05;7.43;;;;;;;15.03;100.00;101463.09;4918789;29;20099;-73
2022/05/11 04:26:55;;;;;;;10.25;8.00;;;;;;;15.17;100.00;101465.41;4917567;29;20036;-73
2022/05/11 04:29:41;;;;;;;10.55;7.60;;;;;;;14.63;100.00;101463.16;4934878;29;20043;-73
2022/05/11 04:32:27;;;;;;;9.55;7.53;;;;;;;15.08;100.00;101470.94;4920525;29;20122;-73
2022/05/11 04:35:13;;;;;;;12.60;7.22;;;;;;;15.55;100.00;101475.94;4919970;29;20032;-75
2022/05/11 04:38:01;;;;;;;13.13;7.82;;;;;;;15.38;100.00;101475.50;4921261;29;20028;-72
2022/05/11 04:40:46;;;;;;;11.90;7.78;;;;;;;15.33;100.00;101475.56;4921390;29;20032;-74
2022/05/11 04:43:32;;;;;;;14.95;8.75;;;;;;;15.28;100.00;101473.97;4921563;29;20471;-73
2022/05/11 04:46:18;;;;;;;14.80;8.20;;;;;;;15.07;100.00;101472.69;4933833;29;20058;-73
2022/05/11 04:49:19;;;;;;;11.07;8.20;;;;;;;15.27;100.00;101473.06;4934553;29;20054;-75
2022/05/11 04:52:09;;;;;;;12.77;7.88;;;;;;;15.19;100.00;101477.66;4920186;29;20032;-73
2022/05/11 04:54:55;;;;;;;15.93;8.20;;;;;;;15.37;100.00;101479.91;4921532;29;20059;-74
2022/05/11 04:57:42;;;;;;;15.57;8.50;;;;;;;15.47;100.00;101480.56;4921071;29;20056;-74
2022/05/11 05:00:27;;;;;;;10.82;8.65;;;;;;;15.25;100.00;101482.81;4920836;29;20028;-74
2022/05/11 05:03:14;;;;;;;11.38;8.45;;;;;;;15.37;100.00;101481.69;4921104;29;20518;-74
2022/05/11 05:06:00;;;;;;;16.05;9.77;;;;;;;15.22;100.00;101484.69;4921218;29;20360;-73
2022/05/11 05:08:46;;;;;;;11.23;8.65;;;;;;;15.25;100.00;101489.84;4920868;29;20063;-74
2022/05/11 05:11:33;;;;;;;17.35;9.40;;;;;;;15.73;100.00;101478.09;4932188;29;20471;-74
2022/05/11 05:14:18;;;;;;;14.13;9.68;;;;;;;15.49;100.00;101484.00;4919493;29;20060;-73
2022/05/11 05:17:06;;;;;;;16.23;10.07;;;;;;;15.72;100.00;101486.94;4919742;29;20063;-74
2022/05/11 05:19:52;;;;;;;14.20;9.50;;;;;;;15.68;100.00;101488.81;4920502;29;20453;-72
2022/05/11 05:22:38;;;;;;;16.42;10.27;;;;;;;15.79;100.00;101488.50;4919436;29;20028;-74
2022/05/11 05:25:25;;;;;;;19.50;10.45;;;;;;;15.90;100.00;101497.00;4921337;29;20032;-73
2022/05/11 05:31:21;;;;;;;18.92;10.13;;;;;;;16.73;100.00;101488.47;4920296;29;20036;-73
2022/05/11 05:34:07;;;;;;;18.38;11.15;;;;;;;16.83;100.00;101496.94;4920772;29;20028;-73
2022/05/11 05:36:52;;;;;;;13.23;10.20;;;;;;;16.72;100.00;101493.78;4921180;29;20031;-73
2022/05/11 05:39:38;;;;;;;18.08;11.98;;;;;;;16.52;100.00;101496.16;4919198;29;20491;-72
2022/05/11 05:42:26;;;;;;;19.27;11.70;;;;;;;16.67;100.00;101501.84;4921039;29;20032;-72
2022/05/11 05:45:12;;;;;;;21.70;11.85;;;;;;;16.95;100.00;101502.75;4933702;29;20058;-75
2022/05/11 05:47:58;;;;;;;17.52;12.00;;;;;;;16.75;100.00;101505.13;4920238;29;20060;-74
2022/05/11 05:50:43;;;;;;;20.65;12.27;;;;;;;16.94;100.00;101508.09;4919965;29;20038;-72
2022/05/11 05:53:29;;;;;;;22.80;12.52;;;;;;;16.95;100.00;101504.50;4919786;29;20486;-74
2022/05/11 05:56:15;;;;;;;20.02;12.55;;;;;;;17.49;100.00;101508.94;4919942;29;20405;-73
2022/05/11 05:59:05;;;;;;;24.50;12.77;;;;;;;17.32;100.00;101505.09;4919382;29;20079;-73
2022/05/11 06:01:51;;;;;;;24.08;12.27;;;;;;;18.01;100.00;101511.53;4920178;29;20029;-74
2022/05/11 06:04:37;;;;;;;20.92;9.98;;;;;;;18.03;100.00;101515.03;4919361;29;20028;-73
2022/05/11 06:07:23;;;;;;;19.30;8.43;;;;;;;17.79;100.00;101513.22;4919849;29;20372;-74
2022/05/11 06:10:09;;;;;;;15.40;8.63;;;;;;;18.07;100.00;101521.97;4919856;29;20103;-73
2022/05/11 06:12:54;;;;;;;15.85;8.45;;;;;;;18.13;100.00;101523.53;4919897;29;20468;-72
2022/05/11 06:15:41;;;;;;;13.48;8.07;;;;;;;18.38;100.00;101527.06;4919845;29;20033;-73
2022/05/11 06:18:27;;;;;;;24.90;8.13;;;;;;;18.44;100.00;101530.34;4919828;29;20028;-73
2022/05/11 06:21:14;;;;;;;16.02;7.95;;;;;;;18.31;100.00;101531.69;4919547;29;20047;-74
2022/05/11 06:24:00;;;;;;;20.60;8.32;;;;;;;18.34;100.00;101526.31;4919046;29;20039;-73
2022/05/11 06:26:46;;;;;;;15.98;9.82;;;;;;;18.40;100.00;101527.84;4918690;29;20440;-73
2022/05/11 06:29:32;;;;;;;23.65;8.65;;;;;;;18.80;100.00;101528.97;4919914;29;20055;-74
2022/05/11 06:32:22;;;;;;;16.40;8.27;;;;;;;18.81;100.00;101530.69;4919859;29;20036;-73
2022/05/11 06:35:09;;;;;;;18.20;8.18;;;;;;;18.49;100.00;101532.84;4918886;29;20035;-73
2022/05/11 06:37:55;;;;;;;13.07;8.25;;;;;;;19.06;100.00;101525.31;4918682;29;20028;-73
2022/05/11 06:40:41;;;;;;;17.70;8.98;;;;;;;19.17;100.00;101529.25;4918158;29;20028;-73
2022/05/11 06:43:27;;;;;;;17.73;9.10;;;;;;;19.24;100.00;101532.56;4919207;29;20028;-73
2022/05/11 06:46:13;;;;;;;14.93;8.73;;;;;;;19.51;100.00;101531.44;4931688;29;20460;-72
2022/05/11 06:48:59;;;;;;;14.50;8.45;;;;;;;19.54;100.00;101534.00;4919045;29;20390;-73
2022/05/11 06:51:44;;;;;;;13.18;8.15;;;;;;;19.85;100.00;101529.09;4918756;29;20032;-73
2022/05/11 07:00:40;;;;;;;14.15;8.50;;;;;;;20.90;100.00;101536.78;4918974;29;20484;-72
2022/05/11 07:03:25;;;;;;;15.57;9.52;;;;;;;20.46;100.00;101525.53;4918752;29;20047;-74
2022/05/11 07:06:11;;;;;;;18.35;8.77;;;;;;;20.20;100.00;101531.13;4917244;29;20099;-73
2022/05/11 07:08:57;;;;;;;17.35;8.90;;;;;;;20.23;100.00;101523.03;4931776;29;20200;-73
2022/05/11 07:14:53;;;;;;;14.32;8.27;;;;;;;20.46;100.00;101525.53;4918207;29;20056;-73
2022/05/11 07:17:46;;;;;;;12.77;8.35;;;;;;;20.53;100.00;101529.63;4931081;29;20028;-72
2022/05/11 07:20:35;;;;;;;14.25;7.78;;;;;;;20.80;100.00;101533.69;4918453;29;20056;-73
2022/05/11 07:23:21;;;;;;;11.52;7.22;;;;;;;21.29;100.00;101537.56;4916915;29;20028;-73
2022/05/11 07:26:07;;;;;;;12.13;7.15;;;;;;;21.05;100.00;101533.44;4917481;29;20032;-73
2022/05/11 07:28:53;;;;;;;10.38;7.70;;;;;;;21.09;100.00;101535.88;4918528;29;20032;-73
2022/05/11 07:31:39;;;;;;;10.70;7.75;;;;;;;21.21;100.00;101532.63;4917783;29;20078;-74
2022/05/11 07:34:24;;;;;;;10.73;7.53;;;;;;;21.00;100.00;101533.66;4917809;29;20036;-73
2022/05/11 07:37:10;;;;;;;10.07;7.10;;;;;;;21.57;100.00;101532.63;4918002;29;20453;-73
2022/05/11 07:39:56;;;;;;;11.07;7.47;;;;;;;21.47;100.00;101537.56;4916907;29;20020;-73
2022/05/11 07:42:43;;;;;;;13.15;6.90;;;;;;;21.95;100.00;101534.25;4916321;29;20350;-74
2022/05/11 07:45:30;;;;;;;13.77;6.18;;;;;;;22.17;100.00;101541.06;4930626;29;20043;-73
2022/05/11 07:48:19;;;;;;;9.80;6.45;;;;;;;22.00;100.00;101541.09;4918275;29;20033;-74
2022/05/11 07:51:05;;;;;;;9.57;6.38;;;;;;;22.68;99.11;101541.03;4919482;29;20040;-73
2022/05/11 07:53:52;;;;;;;7.78;5.28;;;;;;;22.33;93.67;101541.13;4918596;29;20412;-74
2022/05/11 07:59:59;;;;;;;12.18;5.40;;;;;;;21.92;100.00;101539.75;4918670;29;20032;-74
2022/05/11 08:02:45;;;;;;;8.18;5.72;;;;;;;22.99;100.00;101538.38;4931996;29;20040;-73
2022/05/11 08:05:32;;;;;;;7.90;6.40;;;;;;;22.96;99.44;101533.22;4921798;29;20100;-75
2022/05/11 08:08:19;;;;;;;7.75;5.50;;;;;;;23.02;100.00;101540.00;4922351;29;20035;-74
2022/05/11 08:11:04;;;;;;;9.32;5.75;;;;;;;23.73;95.62;101539.47;4920187;29;20028;-73
2022/05/11 08:13:50;;;;;;;11.52;6.78;;;;;;;24.03;91.12;101545.69;4921163;29;20048;-74
2022/05/11 08:16:36;;;;;;;8.73;5.85;;;;;;;24.13;87.44;101533.50;4934178;29;20127;-73
2022/05/11 08:19:25;;;;;;;8.27;5.68;;;;;;;24.19;86.27;101532.25;4922117;29;20031;-73
2022/05/11 08:22:11;;;;;;;9.48;5.75;;;;;;;24.39;87.06;101532.75;4921720;29;20032;-73
2022/05/11 08:24:56;;;;;;;8.27;5.47;;;;;;;24.29;86.60;101536.09;4934231;29;20433;-73
2022/05/11 08:27:42;;;;;;;9.60;5.47;;;;;;;23.64;89.15;101540.00;4919681;29;20039;-73
2022/05/11 08:33:38;;;;;;;9.70;6.85;;;;;;;24.95;75.84;101539.97;4921447;29;20028;-74
2022/05/11 08:36:26;;;;;;;11.95;6.60;;;;;;;24.83;79.83;101530.88;4920673;29;20028;-75
2022/05/11 08:39:12;;;;;;;8.00;6.00;;;;;;;25.74;73.89;101532.00;4920969;29;20036;-73
2022/05/11 08:42:00;;;;;;;18.10;6.10;;;;;;;25.24;76.40;101537.09;4921529;29;20399;-75
2022/05/11 08:44:48;;;;;;;7.45;6.43;;;;;;;25.45;75.81;101533.06;4920930;29;20066;-75
2022/05/11 08:47:48;;;;;;;10.35;6.38;;;;;;;25.43;75.25;101532.31;4921734;29;20063;-75
2022/05/11 08:50:37;;;;;;;7.90;5.85;;;;;;;25.80;69.50;101528.88;4921106;29;20152;-74
2022/05/11 08:53:42;;;;;;;14.15;6.07;;;;;;;24.88;74.31;101525.22;4920569;29;20028;-74
2022/05/11 08:56:31;;;;;;;7.20;5.18;;;;;;;25.37;74.21;101523.81;4921642;29;20032;-74
2022/05/11 08:59:21;;;;;;;8.63;6.03;;;;;;;25.71;73.62;101529.50;4921094;29;20092;-74
2022/05/11 09:02:31;;;;;;;8.52;5.68;;;;;;;25.28;69.96;101524.41;4921291;29;20051;-74
2022/05/11 09:05:21;;;;;;;9.73;6.07;;;;;;;25.13;71.29;101520.00;4933643;29;20020;-73
2022/05/11 09:08:10;;;;;;;7.80;5.47;;;;;;;25.62;73.73;101518.50;4920875;29;20095;-71
2022/05/11 09:10:56;;;;;;;9.85;6.18;;;;;;;26.13;69.82;101520.38;4920394;29;20028;-74
2022/05/11 09:13:44;;;;;;;11.68;5.68;;;;;;;25.43;71.05;101516.19;4932332;29;20084;-74
2022/05/11 09:16:39;;;;;;;11.77;5.80;;;;;;;25.51;70.04;101515.72;4919603;29;20028;-74
2022/05/11 09:19:29;;;;;;;8.57;5.10;;;;;;;25.98;70.33;101519.63;4920254;29;20071;-75
2022/05/11 09:22:22;;;;;;;8.30;6.05;;;;;;;25.26;71.62;101515.56;4920573;29;20036;-74
2022/05/11 09:25:22;;;;;;;8.20;5.97;;;;;;;25.81;69.78;101511.81;4920459;29;20023;-74
2022/05/11 09:28:24;;;;;;;6.95;5.45;;;;;;;25.12;72.71;101515.59;4918733;29;20087;-74
2022/05/11 09:31:14;;;;;;;9.88;5.70;;;;;;;24.80;74.05;101511.44;4920808;29;20449;-74
2022/05/11 09:34:05;;;;;;;9.43;5.55;;;;;;;25.45;71.08;101506.25;4920411;29;20449;-74
2022/05/11 09:37:23;;;;;;;7.40;5.40;;;;;;;25.45;70.94;101506.25;4920964;29;20024;-73
2022/05/11 09:40:21;;;;;;;9.23;5.70;;;;;;;24.95;73.07;101505.13;4919677;29;20099;-75
2022/05/11 09:43:10;;;;;;;6.25;5.40;;;;;;;24.84;73.32;101505.81;4919561;29;20115;-75
2022/05/11 09:45:56;;;;;;;6.22;5.10;;;;;;;25.29;70.95;101510.03;4920251;29;20032;-74
2022/05/11 09:48:54;;;;;;;7.93;4.65;;;;;;;25.54;69.72;101499.38;4919733;29;20520;-74
2022/05/11 09:52:02;;;;;;;9.80;5.03;;;;;;;25.87;68.97;101497.97;4919512;29;20040;-74
2022/05/11 09:54:51;;;;;;;8.15;4.85;;;;;;;26.00;65.33;101484.59;4918961;29;20035;-74
2022/05/11 09:57:37;;;;;;;12.93;4.95;;;;;;;25.69;66.53;101485.81;4919152;29;20024;-74
2022/05/11 10:00:31;;;;;;;41.47;6.97;;;;;;;24.93;66.39;101488.25;4919985;29;20028;-73
2022/05/11 10:03:28;;;;;;;17.63;5.60;;;;;;;25.56;62.33;101484.06;4919501;29;20064;-75
2022/05/11 10:06:18;;;;;;;13.82;4.35;;;;;;;25.54;60.89;101481.47;4919687;29;20115;-74
2022/05/11 10:09:05;;;;;;;4.70;3.60;;;;;;;25.82;58.46;101475.06;4919559;29;20036;-73
2022/05/11 10:11:51;;;;;;;8.40;4.45;;;;;;;25.96;58.45;101475.03;4919428;29;20102;-74
2022/05/11 10:24:30;;;;;;;6.15;4.05;;;;;;;25.62;60.02;101457.66;4919477;29;20032;-74
2022/05/11 10:27:20;;;;;;;5.70;4.20;;;;;;;25.60;60.00;101456.88;4919556;29;20024;-73
2022/05/11 10:30:32;;;;;;;7.22;4.47;;;;;;;25.46;60.57;101453.41;4919754;29;20574;-75
2022/05/11 10:33:34;;;;;;;8.07;4.43;;;;;;;25.87;60.59;101448.75;4931786;29;20040;-73
2022/05/11 10:36:38;;;;;;;9.70;4.53;;;;;;;25.73;60.25;101455.09;4918972;29;20042;-74
2022/05/11 10:39:28;;;;;;;6.95;4.38;;;;;;;25.89;59.56;101442.34;4918578;29;20480;-73
2022/05/11 10:42:34;;;;;;;5.10;4.10;;;;;;;25.51;60.51;101454.81;4919317;29;20028;-73
2022/05/11 10:45:27;;;;;;;5.65;4.30;;;;;;;25.07;66.54;101445.31;4917998;29;20036;-74
2022/05/11 10:48:31;;;;;;;8.02;4.47;;;;;;;24.86;65.34;101438.66;4919488;29;20032;-74
2022/05/11 10:51:58;;;;;;;6.38;4.28;;;;;;;24.97;66.43;101439.69;4932015;29;20036;-74
2022/05/11 10:55:06;;;;;;;5.80;4.03;;;;;;;25.46;60.48;101431.94;4916973;29;20042;-73
2022/05/11 10:58:00;;;;;;;5.10;4.00;;;;;;;25.98;56.79;101438.16;4918208;29;20016;-74
2022/05/11 11:00:53;;;;;;;5.63;4.03;;;;;;;26.08;56.45;101431.19;4918892;29;20486;-73
2022/05/11 11:03:58;;;;;;;8.40;4.50;;;;;;;25.98;56.53;101430.09;4918340;29;20369;-74
2022/05/11 11:07:22;;;;;;;6.40;4.25;;;;;;;26.39;57.37;101423.53;4918552;29;20154;-74
2022/05/11 11:10:16;;;;;;;6.38;4.20;;;;;;;26.98;56.29;101429.97;4916965;29;20036;-74
2022/05/11 11:13:24;;;;;;;8.13;4.38;;;;;;;27.13;54.78;101423.44;4930691;29;20441;-73
2022/05/11 11:16:13;;;;;;;8.35;3.97;;;;;;;26.93;54.22;101424.91;4918574;29;20027;-74
2022/05/11 11:18:59;;;;;;;4.65;4.10;;;;;;;26.58;54.92;101423.09;4918439;29;20496;-74
2022/05/11 11:21:46;;;;;;;6.25;3.97;;;;;;;26.48;56.65;101417.50;4919085;29;20368;-74
2022/05/11 11:24:33;;;;;;;6.75;4.30;;;;;;;26.27;57.17;101415.47;4918700;29;20043;-74
2022/05/11 11:27:58;;;;;;;9.90;4.97;;;;;;;26.17;59.86;101422.50;4918069;29;20039;-75
2022/05/11 11:31:09;;;;;;;8.85;4.82;;;;;;;26.23;58.54;101411.28;4919025;29;20043;-75
2022/05/11 11:34:04;;;;;;;6.80;4.88;;;;;;;26.43;56.75;101414.28;4917546;29;20031;-74
2022/05/11 11:36:50;;;;;;;6.32;4.25;;;;;;;26.22;56.94;101412.25;4917561;29;20028;-73
2022/05/11 11:39:57;;;;;;;4.78;4.07;;;;;;;26.81;55.37;101414.22;4918648;29;20472;-74
2022/05/11 11:42:45;;;;;;;7.60;4.13;;;;;;;26.53;53.58;101411.78;4917787;29;20118;-74
2022/05/11 11:45:31;;;;;;;5.55;4.18;;;;;;;26.63;53.45;101407.47;4918723;29;20334;-74
2022/05/11 11:48:24;;;;;;;6.18;4.97;;;;;;;26.86;51.40;101402.16;4931099;29;20043;-74
2022/05/11 11:51:12;;;;;;;9.57;4.35;;;;;;;26.21;54.01;101398.00;4918150;29;20029;-75
2022/05/11 11:53:59;;;;;;;13.07;4.80;;;;;;;26.85;54.91;101392.34;4918308;29;20049;-73
2022/05/11 11:56:46;;;;;;;5.72;4.05;;;;;;;27.15;52.57;101383.81;4918757;29;20107;-74
2022/05/11 11:59:34;;;;;;;7.05;4.03;;;;;;;26.97;51.91;101383.34;4915862;29;20107;-74
2022/05/11 12:02:37;;;;;;;11.63;4.35;;;;;;;26.77;52.74;101394.75;4916818;29;20080;-74
2022/05/11 12:05:37;;;;;;;7.45;5.03;;;;;;;26.61;53.48;101391.47;4917569;29;20043;-74
2022/05/11 12:15:02;;;;;;;9.25;4.28;;;;;;;27.95;50.76;101383.84;4917773;29;20048;-74
2022/05/11 12:17:48;;;;;;;5.47;3.83;;;;;;;28.23;49.18;101380.66;4917797;29;20028;-74
2022/05/11 12:20:44;;;;;;;7.30;4.65;;;;;;;27.90;50.27;101380.66;4917988;29;20356;-73
2022/05/11 12:23:36;;;;;;;6.88;4.38;;;;;;;27.10;50.94;101386.88;4930272;29;20024;-73
2022/05/11 12:26:30;;;;;;;8.13;3.83;;;;;;;27.53;48.40;101373.72;4917776;29;20032;-73
2022/05/11 12:32:37;;;;;;;6.05;3.92;;;;;;;27.35;49.09;101373.28;4918279;29;20036;-73
2022/05/11 12:35:36;;;;;;;6.40;3.92;;;;;;;27.41;49.37;101372.81;4917898;29;20038;-74
2022/05/11 12:38:31;;;;;;;8.63;4.50;;;;;;;26.85;50.24;101376.19;4917684;29;20032;-74
2022/05/11 12:41:21;;;;;;;5.53;4.28;;;;;;;27.23;50.08;101359.91;4917558;29;20032;-74
2022/05/11 12:44:12;;;;;;;6.82;5.53;;;;;;;27.03;48.02;101363.22;4929919;29;20039;-74
2022/05/11 12:46:59;;;;;;;4.90;4.15;;;;;;;27.27;48.54;101362.25;4916769;29;20035;-73
2022/05/11 12:49:47;;;;;;;5.75;3.88;;;;;;;26.84;49.18;101361.03;4919657;29;20024;-74
2022/05/11 12:52:34;;;;;;;9.30;5.82;;;;;;;27.18;47.28;101349.47;4919213;29;20067;-73
2022/05/11 12:55:27;;;;;;;8.90;5.20;;;;;;;27.56;46.46;101349.22;4933751;29;20055;-73
2022/05/11 12:58:31;;;;;;;4.75;3.85;;;;;;;27.05;48.56;101340.59;4920750;29;20475;-74
2022/05/11 13:01:21;;;;;;;4.90;3.92;;;;;;;27.14;48.03;101333.66;4920432;29;20044;-73
2022/05/11 13:04:21;;;;;;;6.18;3.60;;;;;;;27.87;47.82;101329.72;4933616;29;20024;-74
2022/05/11 13:07:10;;;;;;;8.07;3.67;;;;;;;27.13;47.83;101337.34;4921019;29;20468;-74
2022/05/11 13:09:59;;;;;;;4.57;3.60;;;;;;;27.52;47.53;101325.38;4920905;29;20067;-73
2022/05/11 13:12:50;;;;;;;3.78;3.38;;;;;;;27.26;47.80;101316.63;4918907;29;20024;-73
2022/05/11 13:15:36;;;;;;;5.93;3.75;;;;;;;27.29;47.40;101316.38;4919443;29;20059;-73
2022/05/11 13:18:28;;;;;;;5.03;3.78;;;;;;;27.60;44.79;101317.56;4920385;29;20084;-74
2022/05/11 13:21:26;;;;;;;4.47;3.10;;;;;;;27.08;44.56;101317.97;4933288;29;20024;-74
2022/05/11 13:24:12;;;;;;;8.73;3.55;;;;;;;27.25;45.48;101315.75;4920163;29;20103;-74
2022/05/11 13:26:58;;;;;;;5.15;3.30;;;;;;;27.75;45.03;101313.63;4919180;29;20040;-74
2022/05/11 13:29:44;;;;;;;5.25;3.35;;;;;;;28.04;45.02;101309.53;4920120;29;20046;-74
2022/05/11 13:32:36;;;;;;;5.20;3.25;;;;;;;27.75;45.83;101306.41;4919310;29;20032;-74
2022/05/11 13:35:28;;;;;;;5.25;3.50;;;;;;;27.24;44.37;101300.59;4920439;29;20028;-74
2022/05/11 13:38:18;;;;;;;5.00;3.20;;;;;;;27.79;43.67;101299.81;4920539;29;20516;-75
2022/05/11 13:41:05;;;;;;;7.50;3.38;;;;;;;27.53;43.50;101306.41;4920318;29;20036;-75
2022/05/11 13:43:57;;;;;;;6.18;3.60;;;;;;;27.54;43.74;101297.34;4920302;29;20444;-76